PWSweather.com
Personal Weather Stations
Station Observations
SHAHALMS1
Eftra, Falkenberg, HA

EftraFalkenberg, HA

Lat: 56.85, Lon: 12.65

Elevation: 140

Station Type:

http://hem.passagen.se/risarp101

High Low Average
Temperature 72.1°F22.3°C 62.1°F16.7°C 67.8°F19.9°C
Dew Point 67.4°F19.7°C 57.2°F14.0°C 63.1°F17.3°C
Winds 9.9 mph 15.9 kmh Calm Calm 5.0 mph S8.0 kmh S
Wind Gusts 13.6 mph21.9 kmh -- 9.0 mph14.5 kmh
Humidity 92% 73% 85%
Pressure 30.12 in1020.0 mb 29.92 in1013.2 mb -
Precipitation 0.00 in0.0 mm - -
Hour Temp Dew Point Humidity Winds Wind Gusts Pressure Precip Precip Rate Daily Precip Total
12:00 AM 68.2°F20.1°C 64.8°F18.2°C 89% 9.9 mph E15.9 kmh E 12.2 mph19.6 kmh 29.92 in1013.2 mb 0.00 in0.0 mm 0.00 in0.0 mm 0.00 in0.0 mm
12:10 AM 68.0°F20.0°C 64.6°F18.1°C 89% 9.9 mph E15.9 kmh E 12.2 mph19.6 kmh 29.92 in1013.2 mb 0.00 in0.0 mm 0.00 in0.0 mm 0.00 in0.0 mm
12:20 AM 68.2°F20.1°C 65.1°F18.4°C 90% 9.9 mph E15.9 kmh E 12.2 mph19.6 kmh 29.92 in1013.2 mb 0.00 in0.0 mm 0.00 in0.0 mm 0.00 in0.0 mm
12:30 AM 68.2°F20.1°C 65.1°F18.4°C 90% 9.9 mph E15.9 kmh E 12.2 mph19.6 kmh 29.92 in1013.2 mb 0.00 in0.0 mm 0.00 in0.0 mm 0.00 in0.0 mm
12:40 AM 68.2°F20.1°C 65.1°F18.4°C 90% 9.9 mph E15.9 kmh E 12.2 mph19.6 kmh 29.98 in1015.2 mb 0.00 in0.0 mm 0.00 in0.0 mm 0.00 in0.0 mm
12:50 AM 68.2°F20.1°C 65.1°F18.4°C 90% 9.9 mph E15.9 kmh E 12.2 mph19.6 kmh 29.98 in1015.2 mb 0.00 in0.0 mm 0.00 in0.0 mm 0.00 in0.0 mm
01:00 AM 68.0°F20.0°C 64.6°F18.1°C 89% 9.9 mph E15.9 kmh E 12.2 mph19.6 kmh 29.95 in1014.2 mb 0.00 in0.0 mm 0.00 in0.0 mm 0.00 in0.0 mm
01:10 AM 68.0°F20.0°C 64.6°F18.1°C 89% 9.9 mph E15.9 kmh E 12.2 mph19.6 kmh 29.98 in1015.2 mb 0.00 in0.0 mm 0.00 in0.0 mm 0.00 in0.0 mm
01:20 AM 67.8°F19.9°C 64.5°F18.1°C 89% 9.9 mph E15.9 kmh E 12.2 mph19.6 kmh 29.98 in1015.2 mb 0.00 in0.0 mm 0.00 in0.0 mm 0.00 in0.0 mm
01:30 AM 67.8°F19.9°C 64.8°F18.2°C 90% 9.9 mph E15.9 kmh E 12.2 mph19.6 kmh 29.95 in1014.2 mb 0.00 in0.0 mm 0.00 in0.0 mm 0.00 in0.0 mm
01:40 AM 67.8°F19.9°C 64.8°F18.2°C 90% 9.9 mph E15.9 kmh E 12.2 mph19.6 kmh 29.95 in1014.2 mb 0.00 in0.0 mm 0.00 in0.0 mm 0.00 in0.0 mm
01:50 AM 67.6°F19.8°C 64.3°F17.9°C 89% 9.9 mph E15.9 kmh E 12.2 mph19.6 kmh 29.95 in1014.2 mb 0.00 in0.0 mm 0.00 in0.0 mm 0.00 in0.0 mm
02:00 AM 67.5°F19.7°C 64.1°F17.8°C 89% 9.9 mph E15.9 kmh E 12.2 mph19.6 kmh 29.95 in1014.2 mb 0.00 in0.0 mm 0.00 in0.0 mm 0.00 in0.0 mm
02:10 AM 67.3°F19.6°C 63.9°F17.7°C 89% 9.9 mph E15.9 kmh E 12.2 mph19.6 kmh 29.95 in1014.2 mb 0.00 in0.0 mm 0.00 in0.0 mm 0.00 in0.0 mm
02:20 AM 67.1°F19.5°C 63.7°F17.6°C 89% 9.9 mph E15.9 kmh E 12.2 mph19.6 kmh 29.95 in1014.2 mb 0.00 in0.0 mm 0.00 in0.0 mm 0.00 in0.0 mm
02:30 AM 67.1°F19.5°C 64.1°F17.8°C 90% 9.9 mph E15.9 kmh E 12.2 mph19.6 kmh 29.95 in1014.2 mb 0.00 in0.0 mm 0.00 in0.0 mm 0.00 in0.0 mm
02:40 AM 67.1°F19.5°C 63.7°F17.6°C 89% 9.9 mph E15.9 kmh E 12.2 mph19.6 kmh 29.95 in1014.2 mb 0.00 in0.0 mm 0.00 in0.0 mm 0.00 in0.0 mm
02:50 AM 66.9°F19.4°C 63.9°F17.7°C 90% 9.9 mph E15.9 kmh E 12.2 mph19.6 kmh 29.95 in1014.2 mb 0.00 in0.0 mm 0.00 in0.0 mm 0.00 in0.0 mm
03:00 AM 66.7°F19.3°C 63.7°F17.6°C 90% 9.9 mph E15.9 kmh E 12.2 mph19.6 kmh 29.92 in1013.2 mb 0.00 in0.0 mm 0.00 in0.0 mm 0.00 in0.0 mm
03:10 AM 66.6°F19.2°C 63.5°F17.5°C 90% 9.9 mph E15.9 kmh E 12.2 mph19.6 kmh 29.92 in1013.2 mb 0.00 in0.0 mm 0.00 in0.0 mm 0.00 in0.0 mm
03:20 AM 66.6°F19.2°C 63.5°F17.5°C 90% 9.9 mph E15.9 kmh E 12.2 mph19.6 kmh 29.92 in1013.2 mb 0.00 in0.0 mm 0.00 in0.0 mm 0.00 in0.0 mm
03:30 AM 66.4°F19.1°C 63.4°F17.4°C 90% 9.9 mph E15.9 kmh E 12.2 mph19.6 kmh 29.92 in1013.2 mb 0.00 in0.0 mm 0.00 in0.0 mm 0.00 in0.0 mm
03:40 AM 66.2°F19.0°C 63.2°F17.3°C 90% 9.9 mph E15.9 kmh E 12.2 mph19.6 kmh 29.92 in1013.2 mb 0.00 in0.0 mm 0.00 in0.0 mm 0.00 in0.0 mm
03:50 AM 66.0°F18.9°C 63.0°F17.2°C 90% 9.9 mph E15.9 kmh E 12.2 mph19.6 kmh 29.92 in1013.2 mb 0.00 in0.0 mm 0.00 in0.0 mm 0.00 in0.0 mm
04:00 AM 66.0°F18.9°C 63.3°F17.4°C 91% 9.9 mph E15.9 kmh E 12.2 mph19.6 kmh 29.92 in1013.2 mb 0.00 in0.0 mm 0.00 in0.0 mm 0.00 in0.0 mm
04:10 AM 66.6°F19.2°C 63.9°F17.7°C 91% 9.9 mph E15.9 kmh E 12.2 mph19.6 kmh 29.92 in1013.2 mb 0.00 in0.0 mm 0.00 in0.0 mm 0.00 in0.0 mm
04:20 AM 66.7°F19.3°C 64.0°F17.8°C 91% 9.9 mph E15.9 kmh E 12.2 mph19.6 kmh 29.92 in1013.2 mb 0.00 in0.0 mm 0.00 in0.0 mm 0.00 in0.0 mm
04:30 AM 66.4°F19.1°C 63.4°F17.4°C 90% 9.9 mph E15.9 kmh E 12.2 mph19.6 kmh 29.92 in1013.2 mb 0.00 in0.0 mm 0.00 in0.0 mm 0.00 in0.0 mm
04:40 AM 66.2°F19.0°C 63.2°F17.3°C 90% 9.9 mph E15.9 kmh E 12.2 mph19.6 kmh 29.92 in1013.2 mb 0.00 in0.0 mm 0.00 in0.0 mm 0.00 in0.0 mm
04:50 AM 66.4°F19.1°C 63.4°F17.4°C 90% 9.9 mph E15.9 kmh E 12.2 mph19.6 kmh 29.92 in1013.2 mb 0.00 in0.0 mm 0.00 in0.0 mm 0.00 in0.0 mm
05:00 AM 66.6°F19.2°C 63.5°F17.5°C 90% 9.9 mph E15.9 kmh E 12.2 mph19.6 kmh 29.92 in1013.2 mb 0.00 in0.0 mm 0.00 in0.0 mm 0.00 in0.0 mm
05:10 AM 66.6°F19.2°C 63.5°F17.5°C 90% 9.9 mph E15.9 kmh E 12.2 mph19.6 kmh 29.92 in1013.2 mb 0.00 in0.0 mm 0.00 in0.0 mm 0.00 in0.0 mm
05:20 AM 66.4°F19.1°C 63.4°F17.4°C 90% 9.9 mph E15.9 kmh E 12.2 mph19.6 kmh 29.92 in1013.2 mb 0.00 in0.0 mm 0.00 in0.0 mm 0.00 in0.0 mm
05:30 AM 66.4°F19.1°C 63.4°F17.4°C 90% 9.9 mph E15.9 kmh E 12.2 mph19.6 kmh 29.92 in1013.2 mb 0.00 in0.0 mm 0.00 in0.0 mm 0.00 in0.0 mm
05:40 AM 66.2°F19.0°C 63.2°F17.3°C 90% 9.9 mph E15.9 kmh E 12.2 mph19.6 kmh 29.92 in1013.2 mb 0.00 in0.0 mm 0.00 in0.0 mm 0.00 in0.0 mm
05:50 AM 65.8°F18.8°C 62.8°F17.1°C 90% 9.9 mph E15.9 kmh E 12.2 mph19.6 kmh 29.92 in1013.2 mb 0.00 in0.0 mm 0.00 in0.0 mm 0.00 in0.0 mm
06:00 AM 66.2°F19.0°C 63.2°F17.3°C 90% 9.9 mph E15.9 kmh E 12.2 mph19.6 kmh 29.95 in1014.2 mb 0.00 in0.0 mm 0.00 in0.0 mm 0.00 in0.0 mm
06:10 AM 66.4°F19.1°C 63.7°F17.6°C 91% 9.9 mph E15.9 kmh E 12.2 mph19.6 kmh 29.95 in1014.2 mb 0.00 in0.0 mm 0.00 in0.0 mm 0.00 in0.0 mm
06:20 AM 66.4°F19.1°C 63.4°F17.4°C 90% 9.9 mph E15.9 kmh E 12.2 mph19.6 kmh 29.95 in1014.2 mb 0.00 in0.0 mm 0.00 in0.0 mm 0.00 in0.0 mm
06:30 AM 66.7°F19.3°C 64.0°F17.8°C 91% 9.9 mph E15.9 kmh E 12.2 mph19.6 kmh 29.95 in1014.2 mb 0.00 in0.0 mm 0.00 in0.0 mm 0.00 in0.0 mm
06:40 AM 66.9°F19.4°C 64.2°F17.9°C 91% 9.9 mph E15.9 kmh E 12.2 mph19.6 kmh 29.95 in1014.2 mb 0.00 in0.0 mm 0.00 in0.0 mm 0.00 in0.0 mm
06:50 AM 67.5°F19.7°C 64.7°F18.2°C 91% 9.9 mph E15.9 kmh E 12.2 mph19.6 kmh 29.95 in1014.2 mb 0.00 in0.0 mm 0.00 in0.0 mm 0.00 in0.0 mm
07:00 AM 68.0°F20.0°C 65.3°F18.5°C 91% 9.9 mph E15.9 kmh E 12.2 mph19.6 kmh 29.95 in1014.2 mb 0.00 in0.0 mm 0.00 in0.0 mm 0.00 in0.0 mm
07:10 AM 68.5°F20.3°C 65.8°F18.8°C 91% 9.9 mph E15.9 kmh E 12.2 mph19.6 kmh 29.95 in1014.2 mb 0.00 in0.0 mm 0.00 in0.0 mm 0.00 in0.0 mm
07:20 AM 69.1°F20.6°C 66.3°F19.1°C 91% 9.9 mph E15.9 kmh E 12.2 mph19.6 kmh 29.95 in1014.2 mb 0.00 in0.0 mm 0.00 in0.0 mm 0.00 in0.0 mm
07:30 AM 69.4°F20.8°C 66.7°F19.3°C 91% 9.9 mph E15.9 kmh E 12.2 mph19.6 kmh 29.95 in1014.2 mb 0.00 in0.0 mm 0.00 in0.0 mm 0.00 in0.0 mm
07:40 AM 69.6°F20.9°C 66.9°F19.4°C 91% 9.9 mph E15.9 kmh E 12.2 mph19.6 kmh 29.95 in1014.2 mb 0.00 in0.0 mm 0.00 in0.0 mm 0.00 in0.0 mm
07:50 AM 70.0°F21.1°C 66.9°F19.4°C 90% 9.9 mph E15.9 kmh E 12.2 mph19.6 kmh 29.95 in1014.2 mb 0.00 in0.0 mm 0.00 in0.0 mm 0.00 in0.0 mm
08:00 AM 70.0°F21.1°C 66.6°F19.2°C 89% 9.9 mph E15.9 kmh E 12.2 mph19.6 kmh 29.92 in1013.2 mb 0.00 in0.0 mm 0.00 in0.0 mm 0.00 in0.0 mm
08:10 AM 69.4°F20.8°C 66.1°F18.9°C 89% 9.9 mph E15.9 kmh E 12.2 mph19.6 kmh 29.95 in1014.2 mb 0.00 in0.0 mm 0.00 in0.0 mm 0.00 in0.0 mm
08:20 AM 69.1°F20.6°C 65.4°F18.6°C 88% 9.9 mph E15.9 kmh E 12.2 mph19.6 kmh 29.95 in1014.2 mb 0.00 in0.0 mm 0.00 in0.0 mm 0.00 in0.0 mm
08:30 AM 68.7°F20.4°C 65.0°F18.3°C 88% 9.9 mph E15.9 kmh E 12.2 mph19.6 kmh 29.92 in1013.2 mb 0.00 in0.0 mm 0.00 in0.0 mm 0.00 in0.0 mm
08:40 AM 68.5°F20.3°C 65.2°F18.4°C 89% 9.9 mph E15.9 kmh E 12.2 mph19.6 kmh 29.95 in1014.2 mb 0.00 in0.0 mm 0.00 in0.0 mm 0.00 in0.0 mm
08:50 AM 68.4°F20.2°C 65.0°F18.3°C 89% 9.9 mph E15.9 kmh E 12.2 mph19.6 kmh 29.95 in1014.2 mb 0.00 in0.0 mm 0.00 in0.0 mm 0.00 in0.0 mm
09:00 AM 68.2°F20.1°C 64.8°F18.2°C 89% 9.9 mph E15.9 kmh E 12.2 mph19.6 kmh 29.92 in1013.2 mb 0.00 in0.0 mm 0.00 in0.0 mm 0.00 in0.0 mm
09:10 AM 68.2°F20.1°C 65.1°F18.4°C 90% 9.9 mph E15.9 kmh E 12.2 mph19.6 kmh 29.95 in1014.2 mb 0.00 in0.0 mm 0.00 in0.0 mm 0.00 in0.0 mm
09:20 AM 68.4°F20.2°C 65.3°F18.5°C 90% 9.9 mph E15.9 kmh E 12.2 mph19.6 kmh 29.95 in1014.2 mb 0.00 in0.0 mm 0.00 in0.0 mm 0.00 in0.0 mm
09:30 AM 68.4°F20.2°C 65.3°F18.5°C 90% Calm Calm -- 29.95 in1014.2 mb 0.00 in0.0 mm 0.00 in0.0 mm 0.00 in0.0 mm
09:40 AM 68.2°F20.1°C 65.1°F18.4°C 90% Calm Calm -- 29.98 in1015.2 mb 0.00 in0.0 mm 0.00 in0.0 mm 0.00 in0.0 mm
09:50 AM 68.2°F20.1°C 65.1°F18.4°C 90% Calm Calm -- 29.98 in1015.2 mb 0.00 in0.0 mm 0.00 in0.0 mm 0.00 in0.0 mm
10:00 AM 68.4°F20.2°C 65.3°F18.5°C 90% Calm Calm -- 29.98 in1015.2 mb 0.00 in0.0 mm 0.00 in0.0 mm 0.00 in0.0 mm
10:10 AM 68.7°F20.4°C 66.0°F18.9°C 91% 2.3 mph SW3.7 kmh SW 8.6 mph13.8 kmh 30.01 in1016.3 mb 0.00 in0.0 mm 0.00 in0.0 mm 0.00 in0.0 mm
10:20 AM 68.9°F20.5°C 66.2°F19.0°C 91% 3.6 mph S5.8 kmh S 7.9 mph12.7 kmh 30.01 in1016.3 mb 0.00 in0.0 mm 0.00 in0.0 mm 0.00 in0.0 mm
10:30 AM 69.1°F20.6°C 66.3°F19.1°C 91% 3.9 mph SSW6.3 kmh SSW 6.1 mph9.8 kmh 30.04 in1017.3 mb 0.00 in0.0 mm 0.00 in0.0 mm 0.00 in0.0 mm
10:40 AM 69.6°F20.9°C 67.2°F19.6°C 92% 4.4 mph W7.1 kmh W 8.9 mph14.3 kmh 30.04 in1017.3 mb 0.00 in0.0 mm 0.00 in0.0 mm 0.00 in0.0 mm
10:50 AM 69.8°F21.0°C 66.7°F19.3°C 90% 3.0 mph NW4.8 kmh NW 8.9 mph14.3 kmh 30.04 in1017.3 mb 0.00 in0.0 mm 0.00 in0.0 mm 0.00 in0.0 mm
11:00 AM 70.5°F21.4°C 67.4°F19.7°C 90% 2.3 mph WSW3.7 kmh WSW 9.3 mph15.0 kmh 30.01 in1016.3 mb 0.00 in0.0 mm 0.00 in0.0 mm 0.00 in0.0 mm
11:10 AM 70.7°F21.5°C 67.3°F19.6°C 89% 2.5 mph W4.0 kmh W 6.4 mph10.3 kmh 30.01 in1016.3 mb 0.00 in0.0 mm 0.00 in0.0 mm 0.00 in0.0 mm
11:20 AM 70.3°F21.3°C 66.3°F19.1°C 87% 2.2 mph WSW3.5 kmh WSW 7.5 mph12.1 kmh 30.01 in1016.3 mb 0.00 in0.0 mm 0.00 in0.0 mm 0.00 in0.0 mm
11:30 AM 70.2°F21.2°C 66.1°F18.9°C 87% 3.0 mph W4.8 kmh W 7.5 mph12.1 kmh 30.01 in1016.3 mb 0.00 in0.0 mm 0.00 in0.0 mm 0.00 in0.0 mm
11:40 AM 69.8°F21.0°C 65.8°F18.8°C 87% 2.3 mph WSW3.7 kmh WSW 5.7 mph9.2 kmh 30.01 in1016.3 mb 0.00 in0.0 mm 0.00 in0.0 mm 0.00 in0.0 mm
11:50 AM 69.6°F20.9°C 65.6°F18.7°C 87% 1.5 mph W2.4 kmh W 5.7 mph9.2 kmh 30.01 in1016.3 mb 0.00 in0.0 mm 0.00 in0.0 mm 0.00 in0.0 mm
12:00 PM 69.4°F20.8°C 65.4°F18.6°C 87% 2.6 mph W4.2 kmh W 8.6 mph13.8 kmh 29.98 in1015.2 mb 0.00 in0.0 mm 0.00 in0.0 mm 0.00 in0.0 mm
12:10 PM 69.4°F20.8°C 65.4°F18.6°C 87% 1.3 mph WNW2.1 kmh WNW 5.0 mph8.0 kmh 30.01 in1016.3 mb 0.00 in0.0 mm 0.00 in0.0 mm 0.00 in0.0 mm
12:20 PM 69.8°F21.0°C 65.8°F18.8°C 87% 3.5 mph WNW5.6 kmh WNW 7.9 mph12.7 kmh 30.01 in1016.3 mb 0.00 in0.0 mm 0.00 in0.0 mm 0.00 in0.0 mm
12:30 PM 70.2°F21.2°C 66.1°F18.9°C 87% 3.3 mph WNW5.3 kmh WNW 7.9 mph12.7 kmh 29.98 in1015.2 mb 0.00 in0.0 mm 0.00 in0.0 mm 0.00 in0.0 mm
12:40 PM 70.5°F21.4°C 65.8°F18.8°C 85% 3.6 mph WNW5.8 kmh WNW 10.0 mph16.1 kmh 30.01 in1016.3 mb 0.00 in0.0 mm 0.00 in0.0 mm 0.00 in0.0 mm
12:50 PM 70.9°F21.6°C 65.8°F18.8°C 84% 3.2 mph WNW5.1 kmh WNW 7.9 mph12.7 kmh 30.01 in1016.3 mb 0.00 in0.0 mm 0.00 in0.0 mm 0.00 in0.0 mm
01:00 PM 70.9°F21.6°C 64.8°F18.2°C 81% 3.1 mph W5.0 kmh W 8.9 mph14.3 kmh 30.01 in1016.3 mb 0.00 in0.0 mm 0.00 in0.0 mm 0.00 in0.0 mm
01:10 PM 71.1°F21.7°C 63.9°F17.7°C 78% 3.3 mph WNW5.3 kmh WNW 10.4 mph16.7 kmh 30.01 in1016.3 mb 0.00 in0.0 mm 0.00 in0.0 mm 0.00 in0.0 mm
01:20 PM 71.4°F21.9°C 63.5°F17.5°C 76% 3.9 mph WNW6.3 kmh WNW 13.6 mph21.9 kmh 30.01 in1016.3 mb 0.00 in0.0 mm 0.00 in0.0 mm 0.00 in0.0 mm
01:30 PM 71.8°F22.1°C 64.2°F17.9°C 77% 4.0 mph W6.4 kmh W 12.2 mph19.6 kmh 30.04 in1017.3 mb 0.00 in0.0 mm 0.00 in0.0 mm 0.00 in0.0 mm
01:40 PM 71.4°F21.9°C 63.5°F17.5°C 76% 6.2 mph NW10.0 kmh NW 13.6 mph21.9 kmh 30.04 in1017.3 mb 0.00 in0.0 mm 0.00 in0.0 mm 0.00 in0.0 mm
01:50 PM 71.6°F22.0°C 63.6°F17.6°C 76% 3.4 mph WNW5.5 kmh WNW 13.6 mph21.9 kmh 30.04 in1017.3 mb 0.00 in0.0 mm 0.00 in0.0 mm 0.00 in0.0 mm
02:00 PM 71.8°F22.1°C 63.8°F17.7°C 76% 1.9 mph WNW3.1 kmh WNW 9.3 mph15.0 kmh 30.04 in1017.3 mb 0.00 in0.0 mm 0.00 in0.0 mm 0.00 in0.0 mm
02:10 PM 71.8°F22.1°C 63.4°F17.4°C 75% 2.4 mph W3.9 kmh W 9.7 mph15.6 kmh 30.04 in1017.3 mb 0.00 in0.0 mm 0.00 in0.0 mm 0.00 in0.0 mm
02:20 PM 72.1°F22.3°C 64.2°F17.9°C 76% 3.7 mph W6.0 kmh W 9.7 mph15.6 kmh 30.04 in1017.3 mb 0.00 in0.0 mm 0.00 in0.0 mm 0.00 in0.0 mm
02:30 PM 72.1°F22.3°C 63.8°F17.7°C 75% 3.6 mph WSW5.8 kmh WSW 10.4 mph16.7 kmh 30.04 in1017.3 mb 0.00 in0.0 mm 0.00 in0.0 mm 0.00 in0.0 mm
02:40 PM 71.8°F22.1°C 63.0°F17.2°C 74% 2.1 mph WNW3.4 kmh WNW 6.8 mph10.9 kmh 30.04 in1017.3 mb 0.00 in0.0 mm 0.00 in0.0 mm 0.00 in0.0 mm
02:50 PM 71.6°F22.0°C 62.9°F17.2°C 74% 2.6 mph SW4.2 kmh SW 7.9 mph12.7 kmh 30.04 in1017.3 mb 0.00 in0.0 mm 0.00 in0.0 mm 0.00 in0.0 mm
03:00 PM 71.6°F22.0°C 62.5°F16.9°C 73% 2.9 mph W4.7 kmh W 7.9 mph12.7 kmh 30.04 in1017.3 mb 0.00 in0.0 mm 0.00 in0.0 mm 0.00 in0.0 mm
03:10 PM 71.6°F22.0°C 62.5°F16.9°C 73% 3.8 mph WSW6.1 kmh WSW 10.0 mph16.1 kmh 30.04 in1017.3 mb 0.00 in0.0 mm 0.00 in0.0 mm 0.00 in0.0 mm
03:20 PM 71.4°F21.9°C 62.7°F17.1°C 74% 4.4 mph WSW7.1 kmh WSW 9.3 mph15.0 kmh 30.04 in1017.3 mb 0.00 in0.0 mm 0.00 in0.0 mm 0.00 in0.0 mm
03:30 PM 71.4°F21.9°C 62.7°F17.1°C 74% 4.5 mph SSW7.2 kmh SSW 10.4 mph16.7 kmh 30.04 in1017.3 mb 0.00 in0.0 mm 0.00 in0.0 mm 0.00 in0.0 mm
03:40 PM 71.2°F21.8°C 62.1°F16.7°C 73% 3.8 mph W6.1 kmh W 8.9 mph14.3 kmh 30.04 in1017.3 mb 0.00 in0.0 mm 0.00 in0.0 mm 0.00 in0.0 mm
03:50 PM 71.1°F21.7°C 62.4°F16.9°C 74% 3.7 mph SSW6.0 kmh SSW 10.0 mph16.1 kmh 30.04 in1017.3 mb 0.00 in0.0 mm 0.00 in0.0 mm 0.00 in0.0 mm
04:00 PM 70.9°F21.6°C 62.2°F16.8°C 74% 3.4 mph WSW5.5 kmh WSW 8.6 mph13.8 kmh 30.04 in1017.3 mb 0.00 in0.0 mm 0.00 in0.0 mm 0.00 in0.0 mm
04:10 PM 70.9°F21.6°C 62.2°F16.8°C 74% 1.9 mph SW3.1 kmh SW 6.4 mph10.3 kmh 30.04 in1017.3 mb 0.00 in0.0 mm 0.00 in0.0 mm 0.00 in0.0 mm
04:20 PM 70.9°F21.6°C 62.2°F16.8°C 74% 2.4 mph SSW3.9 kmh SSW 7.5 mph12.1 kmh 30.04 in1017.3 mb 0.00 in0.0 mm 0.00 in0.0 mm 0.00 in0.0 mm
04:30 PM 70.5°F21.4°C 61.8°F16.6°C 74% 1.7 mph W2.7 kmh W 5.4 mph8.7 kmh 30.07 in1018.3 mb 0.00 in0.0 mm 0.00 in0.0 mm 0.00 in0.0 mm
04:40 PM 70.3°F21.3°C 61.7°F16.5°C 74% 3.4 mph W5.5 kmh W 6.8 mph10.9 kmh 30.07 in1018.3 mb 0.00 in0.0 mm 0.00 in0.0 mm 0.00 in0.0 mm
04:50 PM 70.2°F21.2°C 61.9°F16.6°C 75% 2.0 mph W3.2 kmh W 7.2 mph11.6 kmh 30.07 in1018.3 mb 0.00 in0.0 mm 0.00 in0.0 mm 0.00 in0.0 mm
05:00 PM 70.0°F21.1°C 61.3°F16.3°C 74% 2.6 mph WNW4.2 kmh WNW 5.0 mph8.0 kmh 30.07 in1018.3 mb 0.00 in0.0 mm 0.00 in0.0 mm 0.00 in0.0 mm
05:10 PM 69.8°F21.0°C 61.5°F16.4°C 75% 2.0 mph W3.2 kmh W 5.4 mph8.7 kmh 30.07 in1018.3 mb 0.00 in0.0 mm 0.00 in0.0 mm 0.00 in0.0 mm
05:20 PM 69.6°F20.9°C 61.3°F16.3°C 75% 1.9 mph WSW3.1 kmh WSW 6.4 mph10.3 kmh 30.07 in1018.3 mb 0.00 in0.0 mm 0.00 in0.0 mm 0.00 in0.0 mm
05:30 PM 69.3°F20.7°C 61.4°F16.3°C 76% 0.3 mph SW0.5 kmh SW 5.4 mph8.7 kmh 30.07 in1018.3 mb 0.00 in0.0 mm 0.00 in0.0 mm 0.00 in0.0 mm
05:40 PM 68.9°F20.5°C 61.0°F16.1°C 76% 1.3 mph WSW2.1 kmh WSW 7.2 mph11.6 kmh 30.07 in1018.3 mb 0.00 in0.0 mm 0.00 in0.0 mm 0.00 in0.0 mm
05:50 PM 68.5°F20.3°C 61.0°F16.1°C 77% 1.3 mph W2.1 kmh W 6.4 mph10.3 kmh 30.07 in1018.3 mb 0.00 in0.0 mm 0.00 in0.0 mm 0.00 in0.0 mm
06:00 PM 68.2°F20.1°C 60.7°F15.9°C 77% 0.7 mph WSW1.1 kmh WSW 5.7 mph9.2 kmh 30.07 in1018.3 mb 0.00 in0.0 mm 0.00 in0.0 mm 0.00 in0.0 mm
06:10 PM 67.8°F19.9°C 60.7°F15.9°C 78% 3.0 mph W4.8 kmh W 6.1 mph9.8 kmh 30.07 in1018.3 mb 0.00 in0.0 mm 0.00 in0.0 mm 0.00 in0.0 mm
06:20 PM 67.6°F19.8°C 60.9°F16.1°C 79% 0.7 mph SW1.1 kmh SW 5.0 mph8.0 kmh 30.07 in1018.3 mb 0.00 in0.0 mm 0.00 in0.0 mm 0.00 in0.0 mm
06:30 PM 67.5°F19.7°C 60.7°F15.9°C 79% Calm Calm -- 30.04 in1017.3 mb 0.00 in0.0 mm 0.00 in0.0 mm 0.00 in0.0 mm
06:40 PM 67.3°F19.6°C 60.9°F16.1°C 80% 0.2 mph WNW0.3 kmh WNW 3.2 mph5.1 kmh 30.07 in1018.3 mb 0.00 in0.0 mm 0.00 in0.0 mm 0.00 in0.0 mm
06:50 PM 66.9°F19.4°C 60.5°F15.8°C 80% 0.1 mph W0.2 kmh W 1.8 mph2.9 kmh 30.07 in1018.3 mb 0.00 in0.0 mm 0.00 in0.0 mm 0.00 in0.0 mm
07:00 PM 66.7°F19.3°C 60.4°F15.8°C 80% Calm Calm -- 30.07 in1018.3 mb 0.00 in0.0 mm 0.00 in0.0 mm 0.00 in0.0 mm
07:10 PM 66.6°F19.2°C 60.5°F15.8°C 81% Calm Calm -- 30.04 in1017.3 mb 0.00 in0.0 mm 0.00 in0.0 mm 0.00 in0.0 mm
07:20 PM 66.4°F19.1°C 60.4°F15.8°C 81% Calm Calm -- 30.04 in1017.3 mb 0.00 in0.0 mm 0.00 in0.0 mm 0.00 in0.0 mm
07:30 PM 66.2°F19.0°C 60.5°F15.8°C 82% Calm Calm -- 30.04 in1017.3 mb 0.00 in0.0 mm 0.00 in0.0 mm 0.00 in0.0 mm
07:40 PM 66.2°F19.0°C 60.5°F15.8°C 82% 0.2 mph WSW0.3 kmh WSW 4.3 mph6.9 kmh 30.07 in1018.3 mb 0.00 in0.0 mm 0.00 in0.0 mm 0.00 in0.0 mm
07:50 PM 66.0°F18.9°C 60.7°F15.9°C 83% Calm Calm -- 30.07 in1018.3 mb 0.00 in0.0 mm 0.00 in0.0 mm 0.00 in0.0 mm
08:00 PM 65.7°F18.7°C 60.4°F15.8°C 83% 0.2 mph S0.3 kmh S 2.5 mph4.0 kmh 30.07 in1018.3 mb 0.00 in0.0 mm 0.00 in0.0 mm 0.00 in0.0 mm
08:10 PM 65.1°F18.4°C 59.8°F15.4°C 83% 0.2 mph SW0.3 kmh SW 3.2 mph5.1 kmh 30.07 in1018.3 mb 0.00 in0.0 mm 0.00 in0.0 mm 0.00 in0.0 mm
08:20 PM 64.8°F18.2°C 59.5°F15.3°C 83% 1.1 mph SSW1.8 kmh SSW 3.6 mph5.8 kmh 30.07 in1018.3 mb 0.00 in0.0 mm 0.00 in0.0 mm 0.00 in0.0 mm
08:30 PM 64.2°F17.9°C 59.3°F15.2°C 84% 0.2 mph W0.3 kmh W 2.1 mph3.4 kmh 30.07 in1018.3 mb 0.00 in0.0 mm 0.00 in0.0 mm 0.00 in0.0 mm
08:40 PM 63.9°F17.7°C 58.9°F14.9°C 84% 0.3 mph SW0.5 kmh SW 3.2 mph5.1 kmh 30.07 in1018.3 mb 0.00 in0.0 mm 0.00 in0.0 mm 0.00 in0.0 mm
08:50 PM 63.7°F17.6°C 59.1°F15.1°C 85% 0.5 mph W0.8 kmh W 3.2 mph5.1 kmh 30.07 in1018.3 mb 0.00 in0.0 mm 0.00 in0.0 mm 0.00 in0.0 mm
09:00 PM 63.7°F17.6°C 59.4°F15.2°C 86% 0.6 mph WNW1.0 kmh WNW 6.1 mph9.8 kmh 30.09 in1019.0 mb 0.00 in0.0 mm 0.00 in0.0 mm 0.00 in0.0 mm
09:10 PM 63.7°F17.6°C 59.4°F15.2°C 86% 0.1 mph W0.2 kmh W 1.4 mph2.3 kmh 30.09 in1019.0 mb 0.00 in0.0 mm 0.00 in0.0 mm 0.00 in0.0 mm
09:20 PM 63.9°F17.7°C 59.6°F15.3°C 86% Calm Calm -- 30.09 in1019.0 mb 0.00 in0.0 mm 0.00 in0.0 mm 0.00 in0.0 mm
09:30 PM 63.9°F17.7°C 59.9°F15.5°C 87% 1.1 mph W1.8 kmh W 6.1 mph9.8 kmh 30.09 in1019.0 mb 0.00 in0.0 mm 0.00 in0.0 mm 0.00 in0.0 mm
09:40 PM 63.9°F17.7°C 59.9°F15.5°C 87% 1.0 mph W1.6 kmh W 5.7 mph9.2 kmh 30.09 in1019.0 mb 0.00 in0.0 mm 0.00 in0.0 mm 0.00 in0.0 mm
09:50 PM 63.9°F17.7°C 59.9°F15.5°C 87% 2.1 mph W3.4 kmh W 10.4 mph16.7 kmh 30.09 in1019.0 mb 0.00 in0.0 mm 0.00 in0.0 mm 0.00 in0.0 mm
10:00 PM 63.7°F17.6°C 59.7°F15.4°C 87% 3.3 mph WNW5.3 kmh WNW 10.4 mph16.7 kmh 30.09 in1019.0 mb 0.00 in0.0 mm 0.00 in0.0 mm 0.00 in0.0 mm
10:10 PM 63.7°F17.6°C 59.7°F15.4°C 87% 3.5 mph W5.6 kmh W 8.9 mph14.3 kmh 30.12 in1020.0 mb 0.00 in0.0 mm 0.00 in0.0 mm 0.00 in0.0 mm
10:20 PM 63.7°F17.6°C 59.4°F15.2°C 86% 2.2 mph WNW3.5 kmh WNW 6.1 mph9.8 kmh 30.12 in1020.0 mb 0.00 in0.0 mm 0.00 in0.0 mm 0.00 in0.0 mm
10:30 PM 63.7°F17.6°C 59.4°F15.2°C 86% 2.1 mph WNW3.4 kmh WNW 7.2 mph11.6 kmh 30.12 in1020.0 mb 0.00 in0.0 mm 0.00 in0.0 mm 0.00 in0.0 mm
10:40 PM 63.7°F17.6°C 59.4°F15.2°C 86% 2.6 mph W4.2 kmh W 9.3 mph15.0 kmh 30.12 in1020.0 mb 0.00 in0.0 mm 0.00 in0.0 mm 0.00 in0.0 mm
10:50 PM 63.7°F17.6°C 59.4°F15.2°C 86% 3.0 mph W4.8 kmh W 10.7 mph17.2 kmh 30.12 in1020.0 mb 0.00 in0.0 mm 0.00 in0.0 mm 0.00 in0.0 mm
11:00 PM 63.3°F17.4°C 58.7°F14.8°C 85% 1.4 mph W2.3 kmh W 7.9 mph12.7 kmh 30.12 in1020.0 mb 0.00 in0.0 mm 0.00 in0.0 mm 0.00 in0.0 mm
11:10 PM 63.0°F17.2°C 58.0°F14.4°C 84% 0.1 mph S0.2 kmh S 2.5 mph4.0 kmh 30.12 in1020.0 mb 0.00 in0.0 mm 0.00 in0.0 mm 0.00 in0.0 mm
11:20 PM 62.4°F16.9°C 57.5°F14.2°C 84% Calm Calm -- 30.12 in1020.0 mb 0.00 in0.0 mm 0.00 in0.0 mm 0.00 in0.0 mm
11:30 PM 62.1°F16.7°C 57.2°F14.0°C 84% Calm Calm -- 30.12 in1020.0 mb 0.00 in0.0 mm 0.00 in0.0 mm 0.00 in0.0 mm
11:40 PM 62.1°F16.7°C 57.5°F14.2°C 85% 0.2 mph NW0.3 kmh NW 4.3 mph6.9 kmh 30.12 in1020.0 mb 0.00 in0.0 mm 0.00 in0.0 mm 0.00 in0.0 mm
11:50 PM 62.2°F16.8°C 58.0°F14.4°C 86% 3.4 mph WNW5.5 kmh WNW 9.3 mph15.0 kmh 30.12 in1020.0 mb 0.00 in0.0 mm 0.00 in0.0 mm 0.00 in0.0 mm